Time;durP1;ratioP1;P1;durP2;ratioP2;P2;SDS_P1;SDS_P2;PMS_P1;PMS_P2;Temp;Humidity;BMP_temperature;BMP_pressure;BME280_temperature;BME280_humidity;BME280_pressure;Samples;Min_cycle;Max_cycle;Signal;HPM_P1;HPM_P2
2023/10/01 00:04:35;;;;;;;3.22;1.73;;;;;;;10.71;65.17;100943.19;10468164;28;20215;-60
2023/10/01 00:09:37;;;;;;;3.10;1.83;;;;;;;10.69;65.12;100937.16;10464134;28;20048;-60
2023/10/01 00:14:39;;;;;;;86.22;4.97;;;;;;;10.72;65.12;100933.56;10476998;28;20052;-60
2023/10/01 00:19:41;;;;;;;4.60;1.90;;;;;;;10.70;65.17;100925.78;10456929;28;20045;-60
2023/10/01 00:24:44;;;;;;;18.00;3.03;;;;;;;10.65;65.42;100927.75;10473176;28;20052;-60
2023/10/01 00:29:46;;;;;;;5.35;1.80;;;;;;;10.61;65.20;100931.41;10463341;28;20044;-60
2023/10/01 00:34:48;;;;;;;22.58;2.42;;;;;;;10.60;65.23;100928.88;10471380;28;20412;-60
2023/10/01 00:39:56;;;;;;;4.65;2.33;;;;;;;10.64;65.24;100930.44;10467102;28;20048;-60
2023/10/01 00:44:58;;;;;;;26.23;2.40;;;;;;;10.60;65.27;100934.13;10449785;28;20063;-60
2023/10/01 00:50:01;;;;;;;4.80;1.98;;;;;;;10.61;65.45;100920.97;10451697;28;20055;-60
2023/10/01 00:55:05;;;;;;;69.03;3.72;;;;;;;10.65;65.59;100917.28;10475870;28;20135;-60
2023/10/01 01:00:16;;;;;;;90.43;4.40;;;;;;;10.67;66.20;100907.59;10465145;28;20540;-60
2023/10/01 01:05:23;;;;;;;29.52;3.08;;;;;;;10.67;65.72;100891.06;10466939;28;20564;-60
2023/10/01 01:10:26;;;;;;;3.70;1.80;;;;;;;10.72;66.01;100886.47;10470741;28;20488;-60
2023/10/01 01:15:33;;;;;;;29.48;2.55;;;;;;;10.69;66.08;100887.44;10428271;28;20044;-60
2023/10/01 01:20:43;;;;;;;34.45;3.13;;;;;;;10.72;66.18;100887.34;10459062;28;20111;-60
2023/10/01 01:25:46;;;;;;;57.38;3.53;;;;;;;10.77;65.97;100877.50;10468648;28;20480;-60
2023/10/01 01:30:48;;;;;;;5.50;1.90;;;;;;;10.73;66.35;100883.78;10468894;28;20052;-60
2023/10/01 01:35:50;;;;;;;6.32;1.83;;;;;;;10.76;66.19;100881.03;10467910;28;20060;-60
2023/10/01 01:40:52;;;;;;;5.28;2.10;;;;;;;10.82;66.25;100888.59;10466669;28;20332;-60
2023/10/01 01:46:11;;;;;;;6.25;1.75;;;;;;;10.86;66.30;100884.94;10466171;28;20512;-60
2023/10/01 01:51:13;;;;;;;4.82;2.13;;;;;;;10.83;66.22;100892.06;10483442;28;20419;-60
2023/10/01 01:56:16;;;;;;;3.97;1.83;;;;;;;10.78;66.33;100870.50;10465190;28;20055;-60
2023/10/01 02:01:23;;;;;;;25.50;2.03;;;;;;;10.79;66.29;100854.72;10455619;28;20045;-61
2023/10/01 02:06:27;;;;;;;4.57;1.70;;;;;;;10.75;66.34;100855.78;10483099;28;20163;-60
2023/10/01 02:11:32;;;;;;;4.60;1.88;;;;;;;10.75;66.28;100840.06;10468515;28;20072;-60
2023/10/01 02:16:38;;;;;;;3.60;1.80;;;;;;;10.73;66.36;100847.16;10456258;28;20045;-60
2023/10/01 02:21:59;;;;;;;5.70;1.52;;;;;;;10.77;66.32;100851.31;10475482;28;20127;-60
2023/10/01 02:27:03;;;;;;;7.18;2.00;;;;;;;10.87;66.16;100847.38;10459434;28;20044;-60
2023/10/01 02:32:06;;;;;;;13.98;2.15;;;;;;;10.87;66.30;100846.50;10478562;28;20059;-60
2023/10/01 02:37:08;;;;;;;4.85;1.70;;;;;;;10.80;65.96;100845.97;10487495;28;20200;-60
2023/10/01 02:42:20;;;;;;;22.70;2.35;;;;;;;10.75;66.37;100847.06;10484027;28;20075;-60
2023/10/01 02:47:25;;;;;;;3.92;1.65;;;;;;;10.73;66.24;100844.53;10485789;28;20048;-60
2023/10/01 02:52:36;;;;;;;3.63;1.90;;;;;;;10.79;66.34;100852.09;10500199;28;20053;-60
2023/10/01 02:57:40;;;;;;;7.80;2.15;;;;;;;10.83;66.24;100856.28;10481696;28;20463;-60
2023/10/01 03:02:50;;;;;;;9.18;2.20;;;;;;;10.91;66.15;100848.91;10478239;28;20118;-60
2023/10/01 03:07:53;;;;;;;8.00;2.13;;;;;;;10.86;66.47;100853.53;10478529;28;20059;-60
2023/10/01 03:13:00;;;;;;;25.65;2.92;;;;;;;10.92;66.50;100850.63;10471571;28;20052;-60
2023/10/01 03:18:08;;;;;;;9.38;2.25;;;;;;;10.93;66.27;100843.63;10478446;28;20040;-60
2023/10/01 03:28:26;;;;;;;27.83;3.10;;;;;;;10.79;66.39;100840.78;10473756;28;20055;-60
2023/10/01 03:33:30;;;;;;;12.13;2.30;;;;;;;10.74;66.70;100835.78;10476065;28;20044;-60
2023/10/01 03:38:32;;;;;;;22.60;3.08;;;;;;;10.70;66.40;100844.69;10470416;28;20036;-60
2023/10/01 03:43:35;;;;;;;37.28;2.53;;;;;;;10.64;66.58;100844.97;10452823;28;20250;-60
2023/10/01 03:54:06;;;;;;;63.47;3.45;;;;;;;10.64;66.69;100837.13;10471438;28;20688;-60
2023/10/01 03:59:15;;;;;;;10.00;2.33;;;;;;;10.64;66.72;100842.34;10454460;28;20098;-60
2023/10/01 04:04:19;;;;;;;34.33;2.45;;;;;;;10.53;66.88;100836.75;10480457;28;20509;-60
2023/10/01 04:09:26;;;;;;;68.80;4.80;;;;;;;10.34;66.84;100844.56;10475406;28;20503;-60
2023/10/01 04:14:29;;;;;;;61.30;5.25;;;;;;;10.33;66.84;100837.66;10471668;28;20651;-60
2023/10/01 04:19:32;;;;;;;65.82;3.80;;;;;;;10.48;66.69;100841.34;10475011;28;20130;-60
2023/10/01 04:24:34;;;;;;;89.57;4.22;;;;;;;10.41;66.25;100843.38;10476705;28;20094;-60
2023/10/01 04:29:44;;;;;;;12.65;2.55;;;;;;;10.41;66.59;100847.75;10456759;28;20123;-60
2023/10/01 04:34:49;;;;;;;20.63;2.92;;;;;;;10.48;66.40;100849.19;10476045;28;20052;-60
2023/10/01 04:39:51;;;;;;;27.63;2.00;;;;;;;10.46;66.68;100851.88;10450987;28;20047;-60
2023/10/01 04:44:53;;;;;;;2.20;1.40;;;;;;;10.71;66.57;100850.75;10470177;28;20225;-60
2023/10/01 04:49:56;;;;;;;36.50;2.60;;;;;;;10.71;66.23;100855.97;10470782;28;20141;-60
2023/10/01 04:54:59;;;;;;;55.85;3.75;;;;;;;10.57;66.32;100853.16;10439878;28;20500;-60
2023/10/01 05:00:22;;;;;;;15.75;1.90;;;;;;;10.54;66.45;100854.16;10473903;28;20041;-60
2023/10/01 05:05:27;;;;;;;15.00;2.35;;;;;;;10.67;66.72;100852.66;10467311;28;20094;-60
2023/10/01 05:10:50;;;;;;;30.63;2.28;;;;;;;10.71;66.57;100864.69;10473246;28;20135;-60
2023/10/01 05:15:58;;;;;;;42.08;2.42;;;;;;;10.63;66.35;100871.19;10474917;28;20045;-60
2023/10/01 05:21:04;;;;;;;42.22;3.38;;;;;;;10.54;66.16;100869.84;10464193;28;20051;-61
2023/10/01 05:26:10;;;;;;;4.22;2.13;;;;;;;10.54;66.54;100867.22;10470720;28;20040;-60
2023/10/01 05:31:15;;;;;;;79.22;4.28;;;;;;;10.52;66.31;100875.13;10471978;28;20369;-61
2023/10/01 05:36:19;;;;;;;8.90;2.05;;;;;;;10.49;66.58;100888.34;10467694;28;20512;-61
2023/10/01 05:41:32;;;;;;;32.58;3.08;;;;;;;10.45;66.67;100888.56;10468054;28;20056;-60
2023/10/01 05:46:36;;;;;;;9.02;2.22;;;;;;;10.34;66.96;100893.38;10448170;28;20048;-60
2023/10/01 05:51:45;;;;;;;48.72;3.17;;;;;;;10.37;66.97;100882.81;10466075;28;20052;-60
2023/10/01 05:56:48;;;;;;;12.63;2.33;;;;;;;10.40;67.09;100903.59;10466366;28;20045;-60
2023/10/01 06:01:52;;;;;;;12.93;2.22;;;;;;;10.56;66.94;100901.16;10469735;28;20613;-60
2023/10/01 06:06:57;;;;;;;34.65;3.22;;;;;;;10.61;66.69;100901.78;10449411;28;20032;-61
2023/10/01 06:12:04;;;;;;;14.95;2.53;;;;;;;10.70;66.80;100912.72;10454630;28;20083;-60
2023/10/01 06:17:07;;;;;;;20.08;2.10;;;;;;;10.71;66.44;100905.69;10466461;28;20252;-61
2023/10/01 06:22:12;;;;;;;70.32;3.58;;;;;;;10.64;66.32;100905.13;10468534;28;20051;-61
2023/10/01 06:27:18;;;;;;;4.95;2.03;;;;;;;10.65;66.44;100904.22;10451486;28;20052;-61
2023/10/01 06:32:23;;;;;;;54.75;4.10;;;;;;;10.85;66.31;100909.38;10463854;28;20052;-60
2023/10/01 06:37:45;;;;;;;18.92;2.55;;;;;;;10.82;65.91;100906.06;10439578;28;20051;-61
2023/10/01 06:42:47;;;;;;;73.55;4.80;;;;;;;10.84;65.93;100912.94;10469792;28;20067;-61
2023/10/01 06:47:51;;;;;;;42.95;2.58;;;;;;;10.92;66.00;100913.44;10454689;28;20131;-61
2023/10/01 06:52:57;;;;;;;16.95;2.10;;;;;;;11.04;65.82;100922.53;10476929;28;20701;-61
2023/10/01 06:58:05;;;;;;;34.03;3.95;;;;;;;11.07;65.11;100919.78;10473649;28;20052;-61
2023/10/01 07:03:21;;;;;;;13.40;2.22;;;;;;;11.05;65.76;100921.63;10463173;28;20052;-61
2023/10/01 07:08:43;;;;;;;3.65;1.80;;;;;;;11.20;65.82;100916.50;10459450;28;20052;-60
2023/10/01 07:13:47;;;;;;;;;;;;;;;11.21;65.74;100918.19;10446729;28;20056;-61
2023/10/01 07:18:49;;;;;;;27.13;2.78;;;;;;;11.25;65.38;100924.97;10467213;28;19943;-60
2023/10/01 07:23:53;;;;;;;7.80;2.00;;;;;;;11.34;65.49;100909.78;10473285;28;20495;-61
2023/10/01 07:28:59;;;;;;;8.90;2.30;;;;;;;11.66;65.05;100919.56;10475861;28;20340;-61
2023/10/01 07:34:12;;;;;;;34.08;4.82;;;;;;;11.80;64.74;100910.13;10439115;28;20056;-61
2023/10/01 07:39:15;;;;;;;26.15;3.10;;;;;;;11.86;64.56;100919.44;10472293;28;20044;-61
2023/10/01 07:44:18;;;;;;;6.68;2.55;;;;;;;11.87;64.83;100918.50;10475205;28;20183;-61
2023/10/01 07:49:21;;;;;;;32.25;2.92;;;;;;;12.06;64.47;100916.69;10454268;28;20037;-62
2023/10/01 07:54:28;;;;;;;3.60;1.95;;;;;;;12.23;64.11;100910.56;10463656;28;20063;-62
2023/10/01 07:59:35;;;;;;;4.38;2.03;;;;;;;12.40;63.85;100914.06;10468696;28;21694;-61
2023/10/01 08:09:52;;;;;;;6.72;2.20;;;;;;;12.40;63.19;100913.19;10469290;28;20480;-62
2023/10/01 08:20:18;;;;;;;13.90;2.58;;;;;;;13.01;62.60;100913.44;10472732;28;20052;-61
2023/10/01 08:25:24;;;;;;;34.10;2.95;;;;;;;12.93;62.46;100909.44;10468515;28;20046;-61
2023/10/01 08:36:01;;;;;;;5.13;2.80;;;;;;;13.09;62.84;100908.63;10442664;28;20055;-62
2023/10/01 08:41:05;;;;;;;11.10;3.08;;;;;;;13.36;62.64;100912.34;10470504;28;20369;-61
2023/10/01 08:46:17;;;;;;;4.93;2.72;;;;;;;13.43;61.70;100904.06;10449512;28;20093;-61
2023/10/01 08:51:21;;;;;;;4.65;2.63;;;;;;;13.84;61.29;100903.50;10470841;28;20131;-61
2023/10/01 08:56:32;;;;;;;5.47;2.70;;;;;;;13.72;61.65;100912.94;10467061;28;20089;-61
2023/10/01 09:01:34;;;;;;;4.45;2.45;;;;;;;13.73;61.31;100910.22;10463330;28;20079;-62
2023/10/01 09:07:00;;;;;;;6.97;2.80;;;;;;;14.45;59.80;100905.03;10471347;28;20477;-61
2023/10/01 09:12:18;;;;;;;4.30;2.30;;;;;;;14.11;60.25;100907.13;10466747;28;20056;-61
2023/10/01 09:17:27;;;;;;;4.70;2.30;;;;;;;14.07;60.77;100898.59;10465490;28;20032;-61
2023/10/01 09:27:33;;;;;;;7.82;2.70;;;;;;;14.60;60.07;100903.31;10447886;28;20566;-61
2023/10/01 09:32:54;;;;;;;5.65;2.63;;;;;;;14.91;59.26;100889.09;10467034;28;20150;-61
2023/10/01 09:38:03;;;;;;;4.55;2.38;;;;;;;15.11;58.77;100880.78;10432285;28;20052;-61
2023/10/01 09:43:17;;;;;;;4.57;2.25;;;;;;;15.32;59.10;100882.91;10467141;28;20093;-61
2023/10/01 09:48:38;;;;;;;5.53;2.78;;;;;;;15.41;58.10;100877.03;10467446;28;20075;-61
2023/10/01 09:54:00;;;;;;;3.60;2.17;;;;;;;15.71;58.07;100866.31;10471773;28;20209;-61
2023/10/01 09:59:11;;;;;;;5.93;2.83;;;;;;;15.85;58.56;100868.03;10469137;28;20548;-61
2023/10/01 10:04:20;;;;;;;5.18;2.90;;;;;;;16.30;58.13;100869.34;10466994;28;20111;-61
2023/10/01 10:09:25;;;;;;;5.93;2.70;;;;;;;16.44;57.50;100856.06;10468504;28;20485;-61
2023/10/01 10:14:28;;;;;;;5.47;2.80;;;;;;;16.42;57.84;100847.38;10468282;28;20071;-61
2023/10/01 10:19:31;;;;;;;5.90;2.55;;;;;;;16.55;57.62;100854.38;10468630;28;20291;-61
2023/10/01 10:24:54;;;;;;;5.75;2.50;;;;;;;16.91;57.30;100837.72;10465756;28;20075;-61
2023/10/01 10:30:05;;;;;;;6.85;2.40;;;;;;;17.08;57.18;100837.34;10468820;28;20207;-61
2023/10/01 10:35:12;;;;;;;5.65;2.45;;;;;;;17.33;56.72;100841.69;10466766;28;20774;-61
2023/10/01 10:45:21;;;;;;;5.80;2.58;;;;;;;17.54;56.34;100837.50;10469893;28;20477;-61
2023/10/01 10:50:44;;;;;;;5.60;2.30;;;;;;;17.53;56.47;100826.06;10449921;28;20174;-61
2023/10/01 10:56:00;;;;;;;5.25;2.30;;;;;;;17.85;55.77;100823.69;10472453;28;20478;-61
2023/10/01 11:01:15;;;;;;;5.93;2.55;;;;;;;18.06;56.17;100829.97;10476454;28;20420;-61
2023/10/01 11:06:21;;;;;;;6.28;2.50;;;;;;;18.34;55.40;100811.00;10473533;28;20681;-61
2023/10/01 11:11:39;;;;;;;6.40;2.55;;;;;;;18.63;54.67;100801.63;10474583;28;20045;-62
2023/10/01 11:16:47;;;;;;;3.97;2.30;;;;;;;18.90;54.98;100809.19;10474694;28;20106;-61
2023/10/01 11:21:58;;;;;;;8.10;3.28;;;;;;;19.13;54.03;100797.59;10474336;28;20161;-61
2023/10/01 11:27:43;;;;;;;5.75;2.45;;;;;;;19.27;53.63;100796.47;10463771;28;20090;-61
2023/10/01 11:38:19;;;;;;;7.28;2.30;;;;;;;19.88;54.00;100765.66;10456721;28;20060;-61
2023/10/01 11:43:27;;;;;;;6.45;2.33;;;;;;;20.18;53.65;100763.03;10473364;28;20117;-61
2023/10/01 11:48:37;;;;;;;6.93;2.67;;;;;;;20.41;53.47;100753.91;10473723;28;20053;-61
2023/10/01 11:53:55;;;;;;;8.10;2.63;;;;;;;20.67;52.01;100743.66;10472993;28;20162;-61
2023/10/01 11:58:57;;;;;;;6.70;3.22;;;;;;;20.85;52.80;100726.06;10473201;28;21032;-61
2023/10/01 12:04:00;;;;;;;6.07;2.22;;;;;;;21.01;51.95;100716.56;10471614;28;20061;-61
2023/10/01 12:09:02;;;;;;;9.30;3.05;;;;;;;21.21;50.81;100706.78;10472307;28;20307;-61
2023/10/01 12:14:05;;;;;;;6.40;2.47;;;;;;;21.41;51.23;100710.28;10471713;28;20047;-61
2023/10/01 12:19:23;;;;;;;9.57;3.33;;;;;;;21.56;49.45;100706.19;10473274;28;20057;-61
2023/10/01 12:24:28;;;;;;;10.23;3.25;;;;;;;21.70;48.92;100697.75;10453958;28;20130;-61
2023/10/01 12:29:42;;;;;;;9.75;3.53;;;;;;;21.98;49.27;100688.00;10470970;28;20416;-61
2023/10/01 12:34:46;;;;;;;9.50;3.55;;;;;;;22.20;48.55;100685.81;10470979;28;20098;-61
2023/10/01 12:39:50;;;;;;;11.25;4.07;;;;;;;22.20;47.86;100685.81;10470483;28;20055;-61
2023/10/01 12:45:13;;;;;;;10.13;3.33;;;;;;;22.31;47.22;100679.47;10469089;28;20147;-61
2023/10/01 12:50:14;;;;;;;9.52;3.50;;;;;;;22.43;46.75;100663.09;10468692;28;20572;-62
2023/10/01 12:55:16;;;;;;;9.82;3.42;;;;;;;22.43;46.39;100668.41;10449179;28;20052;-61
2023/10/01 13:00:43;;;;;;;7.32;3.20;;;;;;;22.54;46.39;100648.72;10468086;28;20063;-61
2023/10/01 13:05:45;;;;;;;10.77;3.70;;;;;;;22.46;45.41;100652.16;10469157;28;20048;-61
2023/10/01 13:10:50;;;;;;;10.45;3.60;;;;;;;22.53;45.91;100645.22;10469333;28;20123;-61
2023/10/01 13:15:54;;;;;;;9.82;3.67;;;;;;;22.48;45.41;100644.84;10463047;28;20365;-61
2023/10/01 13:20:59;;;;;;;8.98;3.45;;;;;;;22.55;45.40;100647.75;10457920;28;20405;-61
2023/10/01 13:26:09;;;;;;;9.80;3.45;;;;;;;22.82;45.30;100636.22;10467492;28;20041;-62
2023/10/01 13:36:50;;;;;;;8.70;3.58;;;;;;;23.03;44.52;100636.72;10466881;28;20477;-61
2023/10/01 14:08:45;;;;;;;11.35;4.05;;;;;;;23.41;41.98;100612.34;10468644;28;20045;-61
2023/10/01 14:13:47;;;;;;;12.55;4.35;;;;;;;23.31;41.79;100604.41;10447805;28;20056;-61
2023/10/01 14:18:55;;;;;;;10.40;3.58;;;;;;;23.44;41.77;100588.00;10468688;28;20055;-61
2023/10/01 14:24:21;;;;;;;10.48;3.85;;;;;;;23.51;41.93;100586.38;10467995;28;20055;-61
2023/10/01 14:29:23;;;;;;;13.73;4.47;;;;;;;23.63;42.06;100576.25;10471122;28;20052;-61
2023/10/01 14:34:26;;;;;;;12.40;3.95;;;;;;;23.72;42.05;100577.94;10476409;28;20082;-61
2023/10/01 14:39:31;;;;;;;8.70;3.60;;;;;;;23.80;42.33;100578.81;10490799;28;20053;-61
2023/10/01 14:44:42;;;;;;;12.20;4.40;;;;;;;23.81;42.29;100567.16;10475628;28;20060;-61
2023/10/01 14:49:45;;;;;;;13.10;4.10;;;;;;;23.79;41.82;100573.66;10475091;28;20047;-61
2023/10/01 14:54:47;;;;;;;9.80;3.80;;;;;;;23.71;41.82;100566.44;10475180;28;20489;-61
2023/10/01 14:59:49;;;;;;;9.75;3.90;;;;;;;23.76;42.01;100577.47;10475200;28;20350;-61
2023/10/01 15:04:51;;;;;;;10.73;3.60;;;;;;;23.79;41.72;100561.13;10474537;28;20110;-61
2023/10/01 15:10:05;;;;;;;11.30;4.20;;;;;;;23.75;42.11;100562.47;10471712;28;20080;-61
2023/10/01 15:15:18;;;;;;;9.90;4.25;;;;;;;23.78;42.22;100564.78;10474456;28;20055;-61
2023/10/01 15:20:49;;;;;;;9.77;3.85;;;;;;;23.73;42.44;100555.59;10468465;28;20066;-61
2023/10/01 15:25:51;;;;;;;11.32;3.75;;;;;;;23.77;43.50;100544.44;10473612;28;20048;-61
2023/10/01 15:30:54;;;;;;;8.50;3.78;;;;;;;23.62;44.14;100542.50;10472386;28;20143;-61
2023/10/01 15:36:05;;;;;;;8.40;3.50;;;;;;;23.32;45.04;100541.19;10472656;28;20432;-61
2023/10/01 15:41:09;;;;;;;11.15;3.95;;;;;;;23.09;44.91;100548.03;10454179;28;20071;-61
2023/10/01 15:46:11;;;;;;;8.35;3.38;;;;;;;22.90;45.68;100545.59;10472565;28;20057;-61
2023/10/01 15:51:25;;;;;;;9.55;3.40;;;;;;;22.69;46.85;100541.41;10474103;28;20052;-61
2023/10/01 15:56:31;;;;;;;11.35;3.58;;;;;;;22.62;47.66;100543.00;10473794;28;20052;-61
2023/10/01 16:01:33;;;;;;;9.85;3.45;;;;;;;22.57;47.96;100544.47;10473284;28;20056;-61
2023/10/01 16:06:36;;;;;;;11.10;3.55;;;;;;;22.62;47.61;100540.31;10475745;28;20114;-61
2023/10/01 16:11:38;;;;;;;9.68;3.53;;;;;;;22.55;47.61;100531.28;10473080;28;20055;-61
2023/10/01 16:16:40;;;;;;;8.35;3.20;;;;;;;22.39;48.28;100536.44;10471966;28;20055;-61
2023/10/01 16:21:44;;;;;;;9.20;3.47;;;;;;;22.18;48.87;100538.59;10472902;28;20053;-61
2023/10/01 16:26:46;;;;;;;7.70;3.00;;;;;;;21.98;49.14;100537.00;10449402;28;20040;-61
2023/10/01 16:31:49;;;;;;;10.05;3.72;;;;;;;21.79;49.33;100545.09;10467375;28;20904;-63
2023/10/01 16:36:52;;;;;;;159.85;16.27;;;;;;;21.62;49.56;100545.91;10471132;28;20052;-63
2023/10/01 16:41:54;;;;;;;18.92;3.83;;;;;;;21.36;50.67;100553.69;10467498;28;20512;-61
2023/10/01 16:46:57;;;;;;;15.57;5.97;;;;;;;21.17;51.17;100555.56;10480577;28;20131;-62
2023/10/01 16:52:02;;;;;;;12.18;3.92;;;;;;;20.87;51.60;100565.41;10476432;28;20220;-61
2023/10/01 16:57:11;;;;;;;12.52;4.80;;;;;;;20.68;52.35;100564.59;10470618;28;20046;-61
2023/10/01 17:02:19;;;;;;;15.00;4.32;;;;;;;20.31;53.11;100561.75;10475758;28;20048;-62
2023/10/01 17:07:24;;;;;;;11.35;4.25;;;;;;;20.00;53.51;100568.97;10475827;28;20041;-61
2023/10/01 17:12:28;;;;;;;16.88;4.55;;;;;;;19.71;54.09;100569.81;10464398;28;20496;-61
2023/10/01 17:17:33;;;;;;;13.27;4.05;;;;;;;19.58;54.31;100566.56;10442330;28;20367;-61
2023/10/01 17:22:36;;;;;;;17.48;5.18;;;;;;;19.34;55.02;100565.06;10460855;28;20044;-61
2023/10/01 17:27:40;;;;;;;16.23;5.93;;;;;;;19.15;55.64;100564.13;10472156;28;20036;-61
2023/10/01 17:33:00;;;;;;;12.05;4.13;;;;;;;18.96;56.43;100562.16;10464966;28;20499;-61
2023/10/01 17:38:09;;;;;;;8.93;3.00;;;;;;;18.80;56.79;100564.41;10462446;28;20067;-61
2023/10/01 17:43:12;;;;;;;9.15;3.42;;;;;;;18.66;56.93;100577.97;10463467;28;20134;-60
2023/10/01 17:48:16;;;;;;;13.20;3.55;;;;;;;18.51;57.78;100584.53;10463967;28;20496;-59
2023/10/01 17:53:20;;;;;;;11.38;4.07;;;;;;;18.37;57.99;100582.19;10467412;28;20556;-60
2023/10/01 17:58:23;;;;;;;10.25;4.43;;;;;;;18.23;58.22;100582.47;10448791;28;20051;-60
2023/10/01 18:03:30;;;;;;;10.40;3.92;;;;;;;18.10;58.87;100590.50;10465512;28;20048;-60
2023/10/01 18:08:36;;;;;;;9.07;3.60;;;;;;;17.97;58.96;100587.19;10459905;28;20047;-60
2023/10/01 18:13:40;;;;;;;8.13;3.42;;;;;;;17.71;59.51;100593.69;10462454;28;20070;-60
2023/10/01 18:18:42;;;;;;;12.98;3.97;;;;;;;17.53;59.54;100595.97;10443252;28;20452;-59
2023/10/01 18:23:44;;;;;;;9.70;3.80;;;;;;;17.47;60.09;100596.44;10463690;28;20489;-59
2023/10/01 18:28:46;;;;;;;7.88;3.30;;;;;;;17.38;60.24;100599.81;10480206;28;20037;-59
2023/10/01 18:33:53;;;;;;;11.27;3.55;;;;;;;17.28;60.51;100601.44;10462703;28;20047;-60
2023/10/01 18:38:56;;;;;;;8.02;3.58;;;;;;;17.19;60.71;100602.16;10460670;28;20044;-60
2023/10/01 18:43:59;;;;;;;7.63;3.20;;;;;;;17.10;61.06;100597.56;10443388;28;20508;-59
2023/10/01 18:49:01;;;;;;;7.47;2.80;;;;;;;17.00;61.30;100593.94;10463523;28;20041;-60
2023/10/01 18:54:06;;;;;;;7.28;3.08;;;;;;;16.91;61.42;100598.13;10465179;28;20059;-59
2023/10/01 18:59:08;;;;;;;8.35;3.28;;;;;;;16.80;61.57;100602.53;10447319;28;20060;-59
2023/10/01 19:04:12;;;;;;;9.48;3.70;;;;;;;16.70;62.15;100604.16;10461737;28;20075;-59
2023/10/01 19:09:20;;;;;;;12.13;3.13;;;;;;;16.52;62.23;100606.38;10461035;28;20036;-60
2023/10/01 19:14:23;;;;;;;10.32;3.15;;;;;;;16.41;62.47;100597.50;10463646;28;20052;-59
2023/10/01 19:19:32;;;;;;;9.30;3.60;;;;;;;16.39;62.77;100605.53;10470548;28;20429;-59
2023/10/01 19:24:35;;;;;;;10.40;3.80;;;;;;;16.31;63.10;100604.41;10473345;28;20059;-59
2023/10/01 19:29:42;;;;;;;9.52;3.58;;;;;;;16.23;63.13;100605.84;10474342;28;20470;-59
2023/10/01 19:34:46;;;;;;;10.23;3.55;;;;;;;16.16;63.24;100599.28;10471286;28;20324;-59
2023/10/01 19:39:48;;;;;;;13.38;4.50;;;;;;;16.04;63.21;100599.34;10469958;28;20067;-59
2023/10/01 19:45:04;;;;;;;8.57;3.47;;;;;;;15.93;63.54;100600.13;10467279;28;20728;-59
2023/10/01 19:50:36;;;;;;;8.65;3.47;;;;;;;15.63;64.58;100599.66;10472233;28;20040;-59
2023/10/01 19:55:57;;;;;;;8.90;3.60;;;;;;;15.50;64.71;100597.97;10472290;28;20036;-59
2023/10/01 20:01:14;;;;;;;8.07;3.22;;;;;;;15.52;64.23;100603.97;10472282;28;20360;-59
2023/10/01 20:06:20;;;;;;;7.90;3.28;;;;;;;15.46;64.39;100602.56;10451739;28;20114;-59
2023/10/01 20:11:28;;;;;;;9.43;3.45;;;;;;;15.52;64.65;100606.59;10452938;28;20143;-59
2023/10/01 20:16:38;;;;;;;8.75;3.40;;;;;;;15.52;64.30;100596.06;10465883;28;20416;-59
2023/10/01 20:21:42;;;;;;;9.38;3.45;;;;;;;15.43;64.31;100595.72;10469585;28;20059;-59
2023/10/01 20:26:45;;;;;;;11.32;3.72;;;;;;;15.31;64.37;100593.94;10488531;28;20734;-59
2023/10/01 20:31:50;;;;;;;9.07;3.30;;;;;;;15.30;64.56;100605.44;10468063;28;20049;-59
2023/10/01 20:36:52;;;;;;;6.88;2.90;;;;;;;15.30;64.68;100594.03;10467139;28;20064;-59
2023/10/01 20:41:55;;;;;;;10.40;3.17;;;;;;;15.23;64.82;100593.63;10483524;28;20128;-59
2023/10/01 20:46:59;;;;;;;11.60;3.63;;;;;;;15.18;64.80;100601.00;10453052;28;20037;-59
2023/10/01 20:52:02;;;;;;;9.57;3.47;;;;;;;15.03;64.94;100615.19;10469378;28;20044;-59
2023/10/01 20:57:04;;;;;;;10.27;3.22;;;;;;;15.03;65.00;100601.19;10467406;28;20044;-59
2023/10/01 21:02:08;;;;;;;8.77;3.40;;;;;;;15.03;64.97;100602.03;10448851;28;20070;-59
2023/10/01 21:07:14;;;;;;;9.45;3.75;;;;;;;14.94;65.19;100604.44;10467717;28;20128;-59
2023/10/01 21:12:20;;;;;;;7.45;3.13;;;;;;;14.90;65.31;100598.53;10473328;28;20036;-59
2023/10/01 21:17:30;;;;;;;8.77;3.58;;;;;;;14.84;65.22;100593.66;10469420;28;20542;-59
2023/10/01 21:22:33;;;;;;;8.90;3.45;;;;;;;14.72;65.26;100586.59;10470664;28;20603;-59
2023/10/01 21:27:37;;;;;;;7.85;3.20;;;;;;;14.64;64.99;100586.25;10469854;28;20044;-59
2023/10/01 21:32:39;;;;;;;6.38;2.78;;;;;;;14.59;65.09;100583.09;10466780;28;20189;-59
2023/10/01 21:37:42;;;;;;;10.52;3.30;;;;;;;14.59;65.26;100591.00;10429700;28;20163;-59
2023/10/01 21:42:52;;;;;;;8.35;3.33;;;;;;;14.50;65.70;100591.59;10466467;28;20052;-59
2023/10/01 21:47:59;;;;;;;10.60;3.53;;;;;;;14.36;65.28;100589.81;10455350;28;20131;-59
2023/10/01 21:53:39;;;;;;;10.68;3.92;;;;;;;13.95;66.11;100583.72;10466221;28;20040;-59
2023/10/01 21:58:52;;;;;;;8.85;3.65;;;;;;;13.71;66.19;100593.16;10465814;28;20056;-59
2023/10/01 22:03:58;;;;;;;8.98;3.70;;;;;;;13.84;66.51;100585.38;10470457;28;20676;-59
2023/10/01 22:09:04;;;;;;;8.13;3.42;;;;;;;13.98;66.17;100574.81;10469897;28;20060;-59
2023/10/01 22:14:15;;;;;;;7.80;3.67;;;;;;;14.01;66.21;100578.09;10469361;28;20044;-59
2023/10/01 22:19:18;;;;;;;10.07;3.63;;;;;;;13.97;65.81;100570.47;10454828;28;20040;-59
2023/10/01 22:24:33;;;;;;;9.48;3.28;;;;;;;13.98;66.20;100566.94;10451563;28;20041;-59
2023/10/01 22:29:39;;;;;;;7.90;3.75;;;;;;;13.95;65.96;100575.84;10449927;28;20569;-59
2023/10/01 22:34:56;;;;;;;8.65;3.22;;;;;;;13.87;65.88;100572.84;10456364;28;20501;-59
2023/10/01 22:39:59;;;;;;;7.80;3.72;;;;;;;13.80;66.25;100568.09;10465963;28;20416;-59
2023/10/01 22:45:07;;;;;;;7.07;2.60;;;;;;;13.77;66.20;100572.59;10462811;28;20052;-59
2023/10/01 22:50:12;;;;;;;7.07;3.10;;;;;;;13.67;66.36;100568.00;10454921;28;20507;-59
2023/10/01 22:55:16;;;;;;;10.52;4.38;;;;;;;13.45;66.45;100578.16;10472567;28;20036;-59
2023/10/01 23:00:21;;;;;;;7.68;3.53;;;;;;;13.36;66.48;100581.31;10471912;28;20040;-59
2023/10/01 23:05:38;;;;;;;10.00;3.70;;;;;;;13.38;66.73;100584.69;10461458;28;20041;-59
2023/10/01 23:10:41;;;;;;;8.55;3.38;;;;;;;13.45;66.50;100588.66;10474863;28;20048;-59
2023/10/01 23:15:47;;;;;;;8.60;3.42;;;;;;;13.51;66.34;100580.41;10472356;28;20047;-59
2023/10/01 23:20:58;;;;;;;8.68;3.28;;;;;;;13.47;66.10;100582.41;10473531;28;20082;-60
2023/10/01 23:31:28;;;;;;;8.90;4.00;;;;;;;13.42;66.15;100575.69;10474328;28;20491;-59
2023/10/01 23:36:36;;;;;;;14.52;4.05;;;;;;;13.34;66.14;100580.56;10457551;28;20126;-59
2023/10/01 23:41:48;;;;;;;8.77;3.97;;;;;;;13.26;66.38;100573.16;10471047;28;20133;-59
2023/10/01 23:46:52;;;;;;;8.25;2.85;;;;;;;13.15;66.78;100574.75;10471280;28;20048;-59
2023/10/01 23:52:04;;;;;;;6.90;3.10;;;;;;;13.13;66.73;100581.88;10471952;28;20341;-59
2023/10/01 23:57:12;;;;;;;7.22;3.05;;;;;;;13.11;66.45;100581.94;10438336;28;20048;-59
